createdAt,value
2019-04-25T00:01:08.825Z,65.05
2019-04-25T00:02:21.401Z,65.07
2019-04-25T00:03:28.119Z,65.14
2019-04-25T00:04:33.205Z,65.27
2019-04-25T00:05:38.767Z,65.37
2019-04-25T00:06:44.017Z,65.46
2019-04-25T00:07:51.464Z,65.54
2019-04-25T00:08:56.423Z,65.65
2019-04-25T00:10:01.667Z,65.73
2019-04-25T00:11:07.218Z,65.79
2019-04-25T00:12:12.628Z,65.80
2019-04-25T00:13:18.299Z,65.83
2019-04-25T00:14:23.635Z,65.88
2019-04-25T00:15:29.010Z,65.92
2019-04-25T00:16:35.529Z,65.94
2019-04-25T00:17:42.054Z,65.94
2019-04-25T00:18:47.460Z,65.98
2019-04-25T00:19:52.813Z,65.99
2019-04-25T00:21:02.386Z,66.04
2019-04-25T00:22:25.193Z,66.15
2019-04-25T00:23:31.729Z,66.26
2019-04-25T00:24:57.356Z,66.28
2019-04-25T00:26:21.286Z,66.29
2019-04-25T00:27:26.449Z,66.29
2019-04-25T00:28:31.783Z,66.34
2019-04-25T00:29:36.755Z,66.42
2019-04-25T00:30:43.462Z,66.50
2019-04-25T00:31:49.303Z,66.55
2019-04-25T00:32:54.758Z,66.60
2019-04-25T00:33:59.719Z,66.68
2019-04-25T00:35:04.915Z,66.71
2019-04-25T00:36:10.052Z,66.77
2019-04-25T00:37:15.114Z,66.82
2019-04-25T00:38:20.159Z,66.84
2019-04-25T00:39:26.005Z,66.85
2019-04-25T00:40:31.873Z,66.88
2019-04-25T00:41:37.359Z,66.91
2019-04-25T00:42:43.578Z,66.94
2019-04-25T00:43:51.118Z,66.94
2019-04-25T00:44:56.289Z,66.95
2019-04-25T00:46:01.661Z,66.96
2019-04-25T00:47:07.120Z,66.95
2019-04-25T00:48:12.346Z,66.93
2019-04-25T00:49:17.429Z,66.89
2019-04-25T00:50:22.515Z,66.88
2019-04-25T00:51:27.419Z,66.91
2019-04-25T00:52:32.520Z,66.90
2019-04-25T00:53:37.546Z,66.90
2019-04-25T00:54:43.167Z,66.92
2019-04-25T00:55:48.650Z,66.90
2019-04-25T00:56:53.880Z,66.91
2019-04-25T00:58:05.656Z,66.95
2019-04-25T00:59:25.705Z,66.96
2019-04-25T01:00:41.568Z,66.94
2019-04-25T01:02:07.509Z,66.93
2019-04-25T01:03:14.966Z,66.96
2019-04-25T01:04:21.794Z,66.97
2019-04-25T01:05:26.977Z,67.01
2019-04-25T01:06:32.105Z,67.07
2019-04-25T01:07:39.857Z,67.09
2019-04-25T01:08:45.777Z,67.11
2019-04-25T01:09:52.431Z,67.11
2019-04-25T01:10:58.164Z,67.11
2019-04-25T01:12:04.079Z,67.09
2019-04-25T01:13:09.330Z,67.11
2019-04-25T01:14:14.487Z,67.15
2019-04-25T01:15:21.462Z,67.15
2019-04-25T01:16:26.484Z,67.16
2019-04-25T01:17:31.589Z,67.15
2019-04-25T01:18:37.450Z,67.12
2019-04-25T01:19:44.913Z,67.10
2019-04-25T01:20:50.079Z,67.07
2019-04-25T01:21:56.039Z,67.04
2019-04-25T01:23:01.427Z,67.05
2019-04-25T01:24:08.152Z,67.06
2019-04-25T01:25:13.797Z,67.03
2019-04-25T01:26:19.336Z,67.06
2019-04-25T01:27:24.687Z,67.05
2019-04-25T01:28:29.672Z,67.07
2019-04-25T01:29:34.744Z,67.07
2019-04-25T01:30:40.470Z,67.03
2019-04-25T01:31:46.507Z,67.04
2019-04-25T01:32:53.955Z,67.04
2019-04-25T01:33:58.919Z,67.03
2019-04-25T01:35:13.972Z,66.99
2019-04-25T01:36:38.822Z,66.99
2019-04-25T01:38:14.841Z,66.95
2019-04-25T01:39:39.281Z,66.88
2019-04-25T01:40:53.425Z,66.90
2019-04-25T01:42:06.450Z,66.93
2019-04-25T01:43:39.554Z,66.96
2019-04-25T01:44:45.878Z,66.96
2019-04-25T01:45:51.821Z,66.93
2019-04-25T01:46:56.974Z,66.90
2019-04-25T01:48:03.486Z,66.90
2019-04-25T01:49:08.925Z,66.93
2019-04-25T01:50:14.258Z,66.91
2019-04-25T01:51:19.861Z,66.96
2019-04-25T01:52:24.849Z,66.96
2019-04-25T01:53:29.982Z,66.95
2019-04-25T01:54:37.362Z,66.97
2019-04-25T01:55:53.693Z,66.99
2019-04-25T01:56:49.429Z,67.02
2019-04-25T01:57:55.164Z,67.02
2019-04-25T01:59:01.580Z,67.02
2019-04-25T02:00:07.325Z,67.02
2019-04-25T02:01:14.341Z,67.01
2019-04-25T02:02:23.615Z,66.99
2019-04-25T02:03:28.789Z,66.95
2019-04-25T02:04:34.190Z,66.94
2019-04-25T02:05:39.298Z,66.93
2019-04-25T02:06:44.439Z,66.94
2019-04-25T02:07:49.409Z,66.93
2019-04-25T02:08:56.201Z,66.93
2019-04-25T02:10:01.683Z,66.91
2019-04-25T02:11:43.918Z,66.95
2019-04-25T02:12:55.260Z,66.98
2019-04-25T02:14:01.123Z,66.86
2019-04-25T02:15:06.560Z,66.81
2019-04-25T02:16:11.609Z,66.82
2019-04-25T02:17:16.938Z,66.80
2019-04-25T02:18:23.714Z,66.84
2019-04-25T02:19:29.197Z,66.86
2019-04-25T02:20:34.806Z,66.86
2019-04-25T02:21:40.175Z,66.84
2019-04-25T02:22:45.652Z,66.79
2019-04-25T02:23:51.743Z,66.76
2019-04-25T02:24:58.264Z,66.73
2019-04-25T02:26:15.174Z,66.72
2019-04-25T02:27:10.511Z,66.69
2019-04-25T02:28:15.942Z,66.67
2019-04-25T02:29:20.988Z,66.69
2019-04-25T02:30:26.269Z,66.71
2019-04-25T02:31:31.452Z,66.67
2019-04-25T02:32:37.189Z,66.65
2019-04-25T02:33:44.258Z,66.63
2019-04-25T02:34:48.966Z,66.59
2019-04-25T02:35:57.873Z,66.59
2019-04-25T02:37:04.223Z,66.54
2019-04-25T02:38:09.035Z,66.51
2019-04-25T02:39:20.191Z,66.47
2019-04-25T02:40:25.433Z,66.46
2019-04-25T02:41:34.862Z,66.44
2019-04-25T02:42:40.564Z,66.40
2019-04-25T02:43:45.617Z,66.34
2019-04-25T02:45:00.599Z,66.35
2019-04-25T02:46:25.345Z,66.29
2019-04-25T02:47:43.796Z,66.27
2019-04-25T02:49:28.966Z,66.27
2019-04-25T02:50:37.952Z,66.21
2019-04-25T02:52:02.344Z,66.13
2019-04-25T02:53:14.317Z,66.09
2019-04-25T02:54:19.318Z,66.11
2019-04-25T02:55:35.067Z,66.08
2019-04-25T02:56:37.672Z,66.06
2019-04-25T02:57:38.089Z,66.03
2019-04-25T02:58:44.315Z,66.00
2019-04-25T02:59:49.567Z,65.99
2019-04-25T03:01:02.812Z,65.95
2019-04-25T03:02:05.792Z,65.92
2019-04-25T03:03:10.239Z,65.86
2019-04-25T03:04:15.242Z,65.83
2019-04-25T03:05:20.743Z,65.79
2019-04-25T03:06:25.872Z,65.71
2019-04-25T03:07:31.068Z,65.66
2019-04-25T03:08:36.293Z,65.67
2019-04-25T03:09:45.219Z,65.58
2019-04-25T03:10:50.393Z,65.52
2019-04-25T03:11:55.616Z,65.48
2019-04-25T03:13:02.098Z,65.45
2019-04-25T03:14:09.907Z,65.44
2019-04-25T03:15:14.988Z,65.37
2019-04-25T03:16:20.281Z,65.31
2019-04-25T03:17:25.213Z,65.24
2019-04-25T03:18:31.871Z,65.16
2019-04-25T03:19:59.897Z,65.08
2019-04-25T03:21:21.299Z,65.02
2019-04-25T03:22:28.328Z,64.94
2019-04-25T03:23:37.218Z,64.89
2019-04-25T03:24:42.297Z,64.87
2019-04-25T03:25:47.705Z,64.86
2019-04-25T03:26:53.257Z,64.80
2019-04-25T03:27:59.434Z,64.77
2019-04-25T03:29:05.971Z,64.76
2019-04-25T03:30:14.872Z,64.72
2019-04-25T03:31:23.018Z,64.68
2019-04-25T03:32:28.365Z,64.59
2019-04-25T03:33:37.795Z,64.55
2019-04-25T03:34:39.957Z,64.46
2019-04-25T03:35:45.139Z,64.42
2019-04-25T03:36:50.155Z,64.37
2019-04-25T03:37:55.392Z,64.31
2019-04-25T03:39:00.897Z,64.23
2019-04-25T03:40:07.577Z,64.21
2019-04-25T03:41:14.658Z,64.19
2019-04-25T03:42:19.945Z,64.18
2019-04-25T03:43:25.140Z,64.16
2019-04-25T03:44:30.486Z,64.17
2019-04-25T03:45:35.781Z,64.12
2019-04-25T03:46:40.691Z,64.12
2019-04-25T03:47:46.104Z,64.08
2019-04-25T03:48:51.035Z,64.08
2019-04-25T03:49:56.434Z,63.99
2019-04-25T03:51:02.213Z,63.97
2019-04-25T03:52:08.322Z,63.98
2019-04-25T03:53:13.993Z,64.00
2019-04-25T03:54:19.096Z,63.99
2019-04-25T03:55:24.160Z,63.96
2019-04-25T03:56:29.153Z,63.97
2019-04-25T03:57:34.127Z,63.95
2019-04-25T03:58:39.108Z,63.93
2019-04-25T03:59:44.476Z,63.90
2019-04-25T04:00:49.600Z,63.95
2019-04-25T04:01:55.127Z,63.96
2019-04-25T04:03:00.144Z,63.96
2019-04-25T04:04:06.710Z,63.93
2019-04-25T04:05:13.905Z,63.93
2019-04-25T04:06:18.988Z,63.93
2019-04-25T04:07:24.004Z,63.94
2019-04-25T04:08:28.932Z,63.95
2019-04-25T04:09:33.907Z,63.96
2019-04-25T04:10:40.633Z,63.96
2019-04-25T04:11:45.977Z,63.95
2019-04-25T04:12:51.374Z,63.96
2019-04-25T04:13:56.391Z,63.95
2019-04-25T04:15:01.664Z,63.95
2019-04-25T04:16:06.840Z,63.95
2019-04-25T04:17:17.993Z,63.93
2019-04-25T04:18:41.120Z,63.92
2019-04-25T04:19:55.587Z,63.93
2019-04-25T04:21:16.283Z,63.89
2019-04-25T04:22:35.732Z,63.88
2019-04-25T04:23:45.038Z,63.89
2019-04-25T04:24:53.877Z,63.94
2019-04-25T04:25:58.905Z,63.95
2019-04-25T04:27:09.172Z,63.95
2019-04-25T04:28:14.993Z,63.93
2019-04-25T04:29:19.918Z,63.91
2019-04-25T04:30:24.926Z,63.88
2019-04-25T04:31:30.263Z,63.87
2019-04-25T04:32:35.351Z,63.84
2019-04-25T04:33:40.617Z,63.85
2019-04-25T04:34:45.684Z,63.87
2019-04-25T04:35:50.696Z,63.85
2019-04-25T04:36:55.617Z,63.85
2019-04-25T04:38:00.591Z,63.86
2019-04-25T04:39:07.775Z,63.86
2019-04-25T04:40:16.016Z,63.82
2019-04-25T04:41:20.237Z,63.80
2019-04-25T04:42:25.542Z,63.79
2019-04-25T04:43:34.272Z,63.79
2019-04-25T04:44:39.567Z,63.76
2019-04-25T04:45:45.645Z,63.74
2019-04-25T04:46:50.697Z,63.72
2019-04-25T04:47:56.271Z,63.75
2019-04-25T04:49:01.970Z,63.78
2019-04-25T04:50:08.905Z,63.76
2019-04-25T04:51:14.858Z,63.75
2019-04-25T04:52:23.473Z,63.70
2019-04-25T04:53:27.805Z,63.70
2019-04-25T04:54:34.461Z,63.68
2019-04-25T04:55:39.590Z,63.68
2019-04-25T04:56:44.843Z,63.60
2019-04-25T04:57:49.774Z,63.60
2019-04-25T04:58:54.764Z,63.60
2019-04-25T05:00:00.077Z,63.59
2019-04-25T05:01:05.130Z,63.57
2019-04-25T05:02:18.789Z,63.55
2019-04-25T05:03:37.142Z,63.53
2019-04-25T05:05:07.195Z,63.49
2019-04-25T05:06:17.356Z,63.41
2019-04-25T05:07:44.032Z,63.35
2019-04-25T05:08:53.236Z,63.36
2019-04-25T05:09:59.193Z,63.29
2019-04-25T05:11:04.312Z,63.28
2019-04-25T05:12:09.295Z,63.25
2019-04-25T05:13:15.732Z,63.24
2019-04-25T05:14:21.685Z,63.19
2019-04-25T05:15:26.816Z,63.16
2019-04-25T05:16:33.196Z,63.11
2019-04-25T05:17:38.596Z,63.07
2019-04-25T05:18:43.844Z,63.02
2019-04-25T05:19:48.859Z,62.98
2019-04-25T05:20:54.340Z,62.91
2019-04-25T05:21:59.311Z,62.82
2019-04-25T05:23:04.243Z,62.75
2019-04-25T05:24:09.228Z,62.68
2019-04-25T05:25:16.341Z,62.62
2019-04-25T05:26:21.600Z,62.59
2019-04-25T05:27:37.515Z,62.54
2019-04-25T05:28:33.530Z,62.51
2019-04-25T05:29:38.529Z,62.47
2019-04-25T05:30:58.879Z,62.44
2019-04-25T05:32:04.332Z,62.46
2019-04-25T05:33:09.294Z,62.42
2019-04-25T05:34:15.666Z,62.39
2019-04-25T05:35:21.955Z,62.33
2019-04-25T05:36:37.535Z,62.28
2019-04-25T05:37:43.604Z,62.20
2019-04-25T05:38:49.031Z,62.17
2019-04-25T05:39:54.093Z,62.14
2019-04-25T05:41:03.965Z,62.00
2019-04-25T05:42:19.074Z,61.88
2019-04-25T05:43:25.693Z,61.73
2019-04-25T05:44:30.851Z,61.53
2019-04-25T05:45:35.995Z,61.40
2019-04-25T05:46:41.323Z,61.26
2019-04-25T05:47:46.436Z,61.15
2019-04-25T05:48:53.768Z,60.97
2019-04-25T05:49:58.854Z,60.82
2019-04-25T05:51:04.050Z,60.68
2019-04-25T05:52:08.988Z,60.55
2019-04-25T05:53:14.287Z,60.49
2019-04-25T05:54:19.284Z,60.41
2019-04-25T05:55:25.246Z,60.34
2019-04-25T05:56:30.860Z,60.26
2019-04-25T05:57:45.509Z,60.16
2019-04-25T05:58:51.151Z,60.01
2019-04-25T05:59:56.186Z,59.90
2019-04-25T06:01:01.181Z,59.79
2019-04-25T06:02:06.387Z,59.73
2019-04-25T06:03:11.312Z,59.60
2019-04-25T06:04:17.842Z,59.38
2019-04-25T06:05:25.929Z,59.20
2019-04-25T06:06:30.060Z,59.00
2019-04-25T06:07:35.830Z,58.86
2019-04-25T06:08:47.185Z,58.71
2019-04-25T06:10:08.399Z,58.54
2019-04-25T06:11:21.611Z,58.45
2019-04-25T06:12:34.959Z,58.35
2019-04-25T06:13:53.555Z,58.23
2019-04-25T06:14:58.637Z,58.12
2019-04-25T06:16:07.621Z,57.98
2019-04-25T06:17:16.776Z,57.86
2019-04-25T06:18:32.107Z,57.79
2019-04-25T06:19:50.001Z,57.74
2019-04-25T06:20:55.646Z,57.67
2019-04-25T06:22:00.644Z,57.64
2019-04-25T06:23:21.492Z,57.60
2019-04-25T06:24:38.120Z,57.60
2019-04-25T06:25:43.921Z,57.56
2019-04-25T06:27:16.928Z,57.48
2019-04-25T06:28:24.006Z,57.50
2019-04-25T06:29:29.813Z,57.49
2019-04-25T06:30:35.330Z,57.52
2019-04-25T06:31:40.874Z,57.52
2019-04-25T06:32:46.209Z,57.53
2019-04-25T06:33:53.767Z,57.52
2019-04-25T06:34:59.719Z,57.47
2019-04-25T06:36:05.215Z,57.45
2019-04-25T06:37:10.521Z,57.51
2019-04-25T06:38:15.454Z,57.54
2019-04-25T06:39:21.975Z,57.60
2019-04-25T06:40:29.711Z,57.62
2019-04-25T06:41:35.368Z,57.65
2019-04-25T06:42:40.547Z,57.65
2019-04-25T06:43:48.035Z,57.65
2019-04-25T06:45:14.800Z,57.64
2019-04-25T06:46:38.281Z,57.64
2019-04-25T06:48:11.631Z,57.70
2019-04-25T06:49:28.206Z,57.76
2019-04-25T06:50:34.156Z,57.83
2019-04-25T06:51:50.297Z,57.81
2019-04-25T06:52:55.635Z,57.78
2019-04-25T06:54:00.683Z,57.78
2019-04-25T06:55:06.992Z,57.72
2019-04-25T06:56:13.723Z,57.68
2019-04-25T06:57:18.660Z,57.60
2019-04-25T06:58:26.917Z,57.48
2019-04-25T06:59:30.483Z,57.49
2019-04-25T07:00:41.157Z,57.49
2019-04-25T07:01:43.993Z,57.47
2019-04-25T07:02:49.083Z,57.46
2019-04-25T07:03:54.585Z,57.40
2019-04-25T07:04:59.618Z,57.37
2019-04-25T07:06:04.795Z,57.19
2019-04-25T07:07:12.643Z,57.07
2019-04-25T07:08:16.906Z,56.90
2019-04-25T07:09:24.410Z,56.75
2019-04-25T07:10:29.782Z,56.58
2019-04-25T07:11:35.855Z,56.43
2019-04-25T07:12:41.643Z,56.29
2019-04-25T07:13:46.680Z,56.15
2019-04-25T07:14:51.683Z,56.06
2019-04-25T07:15:57.295Z,55.95
2019-04-25T07:17:04.221Z,55.85
2019-04-25T07:18:09.680Z,55.74
2019-04-25T07:19:17.513Z,55.61
2019-04-25T07:20:25.686Z,55.37
2019-04-25T07:21:30.205Z,55.15
2019-04-25T07:22:36.200Z,55.01
2019-04-25T07:23:43.505Z,54.80
2019-04-25T07:24:48.043Z,54.69
2019-04-25T07:26:03.741Z,54.56
2019-04-25T07:27:28.400Z,54.54
2019-04-25T07:28:44.311Z,54.41
2019-04-25T07:30:04.020Z,54.40
2019-04-25T07:31:33.142Z,54.42
2019-04-25T07:32:45.414Z,54.31
2019-04-25T07:33:54.781Z,54.24
2019-04-25T07:34:59.781Z,54.21
2019-04-25T07:36:04.937Z,54.22
2019-04-25T07:37:09.995Z,54.21
2019-04-25T07:38:15.122Z,54.06
2019-04-25T07:39:20.272Z,54.02
2019-04-25T07:40:26.123Z,53.95
2019-04-25T07:41:31.561Z,53.92
2019-04-25T07:42:36.965Z,53.92
2019-04-25T07:43:43.352Z,53.85
2019-04-25T07:44:52.690Z,53.85
2019-04-25T07:45:55.502Z,53.75
2019-04-25T07:47:00.834Z,53.67
2019-04-25T07:48:06.100Z,53.65
2019-04-25T07:49:11.287Z,53.61
2019-04-25T07:50:16.891Z,53.63
2019-04-25T07:51:23.615Z,53.64
2019-04-25T07:52:28.927Z,53.62
2019-04-25T07:53:35.145Z,53.53
2019-04-25T07:54:40.808Z,53.42
2019-04-25T07:55:45.918Z,53.29
2019-04-25T07:56:50.870Z,53.17
2019-04-25T07:57:55.923Z,53.09
2019-04-25T07:59:01.193Z,53.02
2019-04-25T08:00:13.113Z,52.96
2019-04-25T08:01:18.636Z,52.88
2019-04-25T08:02:23.989Z,52.86
2019-04-25T08:03:28.960Z,52.81
2019-04-25T08:04:35.750Z,52.77
2019-04-25T08:05:40.979Z,52.83
2019-04-25T08:06:46.011Z,52.87
2019-04-25T08:07:51.256Z,52.96
2019-04-25T08:08:56.267Z,52.96
2019-04-25T08:10:01.391Z,52.97
2019-04-25T08:11:07.893Z,52.92
2019-04-25T08:12:13.365Z,52.97
2019-04-25T08:13:19.049Z,52.98
2019-04-25T08:14:47.400Z,52.96
2019-04-25T08:15:54.834Z,52.96
2019-04-25T08:17:03.627Z,52.96
2019-04-25T08:18:09.859Z,52.93
2019-04-25T08:19:15.001Z,52.88
2019-04-25T08:20:20.282Z,52.91
2019-04-25T08:21:25.367Z,52.81
2019-04-25T08:22:30.363Z,52.68
2019-04-25T08:23:38.893Z,52.66
2019-04-25T08:24:44.386Z,52.65
2019-04-25T08:25:49.771Z,52.71
2019-04-25T08:26:54.931Z,52.66
2019-04-25T08:27:59.978Z,52.60
2019-04-25T08:29:05.222Z,52.60
2019-04-25T08:30:10.673Z,52.62
2019-04-25T08:31:15.985Z,52.54
2019-04-25T08:32:21.011Z,52.42
2019-04-25T08:33:26.190Z,52.28
2019-04-25T08:34:32.435Z,52.18
2019-04-25T08:35:38.222Z,52.05
2019-04-25T08:36:45.667Z,51.98
2019-04-25T08:37:51.036Z,51.83
2019-04-25T08:38:56.346Z,51.77
2019-04-25T08:40:01.434Z,51.62
2019-04-25T08:41:06.475Z,51.51
2019-04-25T08:42:13.027Z,51.33
2019-04-25T08:43:18.439Z,51.26
2019-04-25T08:44:24.105Z,51.17
2019-04-25T08:45:29.642Z,51.06
2019-04-25T08:46:36.601Z,50.91
2019-04-25T08:47:43.821Z,50.63
2019-04-25T08:49:06.430Z,50.52
2019-04-25T08:50:29.178Z,50.43
2019-04-25T08:51:34.914Z,50.34
2019-04-25T08:52:40.802Z,50.29
2019-04-25T08:53:55.521Z,50.24
2019-04-25T08:55:08.688Z,50.24
2019-04-25T08:56:17.244Z,50.26
2019-04-25T08:57:42.020Z,50.20
2019-04-25T08:59:07.930Z,50.23
2019-04-25T09:00:24.127Z,50.25
2019-04-25T09:01:40.590Z,50.18
2019-04-25T09:02:51.864Z,50.17
2019-04-25T09:04:13.853Z,50.09
2019-04-25T09:05:25.473Z,50.07
2019-04-25T09:06:30.601Z,49.94
2019-04-25T09:07:37.741Z,49.92
2019-04-25T09:08:45.199Z,49.75
2019-04-25T09:09:49.178Z,49.71
2019-04-25T09:10:54.195Z,49.61
2019-04-25T09:11:59.574Z,49.54
2019-04-25T09:13:05.083Z,49.47
2019-04-25T09:14:10.175Z,49.36
2019-04-25T09:15:15.836Z,49.29
2019-04-25T09:16:20.935Z,49.25
2019-04-25T09:17:25.935Z,49.15
2019-04-25T09:18:30.977Z,48.99
2019-04-25T09:19:37.166Z,48.93
2019-04-25T09:20:43.758Z,48.84
2019-04-25T09:21:49.684Z,48.80
2019-04-25T09:22:54.584Z,48.60
2019-04-25T09:23:59.893Z,48.35
2019-04-25T09:25:05.714Z,48.26
2019-04-25T09:26:10.794Z,48.08
2019-04-25T09:27:16.218Z,48.00
2019-04-25T09:28:21.186Z,47.96
2019-04-25T09:29:26.422Z,47.99
2019-04-25T09:30:31.510Z,48.00
2019-04-25T09:31:37.579Z,48.02
2019-04-25T09:32:44.583Z,48.04
2019-04-25T09:33:51.500Z,48.16
2019-04-25T09:34:56.651Z,48.33
2019-04-25T09:36:01.697Z,48.36
2019-04-25T09:37:07.153Z,48.40
2019-04-25T09:38:13.290Z,48.50
2019-04-25T09:39:35.615Z,48.54
2019-04-25T09:40:41.881Z,48.55
2019-04-25T09:41:46.953Z,48.45
2019-04-25T09:42:53.656Z,48.43
2019-04-25T09:44:04.437Z,48.38
2019-04-25T09:45:17.973Z,48.19
2019-04-25T09:46:27.297Z,48.15
2019-04-25T09:47:33.516Z,48.00
2019-04-25T09:49:44.883Z,47.58
2019-04-25T09:50:53.453Z,47.42
2019-04-25T09:52:06.991Z,47.34
2019-04-25T09:53:21.838Z,47.28
2019-04-25T09:54:38.057Z,47.18
2019-04-25T09:55:54.242Z,47.02
2019-04-25T09:57:06.068Z,46.85
2019-04-25T09:58:16.862Z,46.85
2019-04-25T09:59:28.019Z,46.80
2019-04-25T10:00:33.388Z,46.88
2019-04-25T10:01:40.200Z,46.81
2019-04-25T10:02:45.309Z,46.69
2019-04-25T10:03:50.289Z,46.70
2019-04-25T10:04:55.780Z,46.71
2019-04-25T10:06:00.792Z,46.76
2019-04-25T10:07:06.136Z,46.82
2019-04-25T10:08:11.234Z,46.80
2019-04-25T10:09:16.936Z,46.79
2019-04-25T10:10:22.130Z,46.78
2019-04-25T10:11:27.431Z,46.77
2019-04-25T10:12:34.078Z,46.80
2019-04-25T10:13:40.042Z,46.79
2019-04-25T10:15:16.121Z,46.71
2019-04-25T10:16:21.218Z,46.61
2019-04-25T10:17:26.299Z,46.63
2019-04-25T10:18:33.492Z,46.61
2019-04-25T10:19:39.107Z,46.69
2019-04-25T10:20:45.171Z,46.76
2019-04-25T10:21:53.428Z,46.73
2019-04-25T10:22:57.863Z,46.68
2019-04-25T10:24:03.579Z,46.66
2019-04-25T10:25:08.687Z,46.67
2019-04-25T10:26:13.821Z,46.72
2019-04-25T10:27:19.124Z,46.78
2019-04-25T10:28:24.763Z,46.85
2019-04-25T10:29:39.445Z,46.86
2019-04-25T10:30:37.032Z,46.72
2019-04-25T10:31:43.982Z,46.55
2019-04-25T10:32:49.580Z,46.37
2019-04-25T10:33:54.695Z,46.26
2019-04-25T10:34:59.701Z,46.12
2019-04-25T10:36:07.419Z,45.91
2019-04-25T10:37:13.802Z,45.82
2019-04-25T10:38:19.084Z,45.68
2019-04-25T10:39:24.259Z,45.57
2019-04-25T10:40:29.491Z,45.44
2019-04-25T10:41:35.856Z,45.36
2019-04-25T10:42:41.366Z,45.23
2019-04-25T10:43:48.123Z,45.16
2019-04-25T10:44:56.257Z,45.16
2019-04-25T10:45:59.925Z,45.33
2019-04-25T10:47:05.115Z,45.44
2019-04-25T10:48:10.237Z,45.52
2019-04-25T10:49:15.305Z,45.61
2019-04-25T10:50:20.630Z,45.65
2019-04-25T10:51:25.635Z,45.67
2019-04-25T10:52:30.620Z,45.54
2019-04-25T10:53:35.684Z,45.50
2019-04-25T10:54:41.241Z,45.49
2019-04-25T10:55:49.749Z,45.51
2019-04-25T10:56:54.866Z,45.50
2019-04-25T10:58:00.007Z,45.48
2019-04-25T10:59:05.091Z,45.45
2019-04-25T11:00:19.572Z,45.38
2019-04-25T11:01:24.669Z,45.32
2019-04-25T11:02:29.905Z,45.28
2019-04-25T11:03:42.072Z,45.27
2019-04-25T11:04:52.083Z,45.31
2019-04-25T11:05:57.291Z,45.30
2019-04-25T11:07:03.734Z,45.32
2019-04-25T11:08:08.776Z,45.37
2019-04-25T11:09:21.897Z,45.41
2019-04-25T11:10:26.979Z,45.41
2019-04-25T11:11:35.002Z,45.44
2019-04-25T11:12:41.083Z,45.43
2019-04-25T11:13:46.841Z,45.41
2019-04-25T11:14:53.302Z,45.37
2019-04-25T11:15:58.804Z,45.33
2019-04-25T11:17:03.824Z,45.25
2019-04-25T11:18:08.893Z,45.24
2019-04-25T11:19:15.325Z,45.22
2019-04-25T11:20:25.891Z,45.14
2019-04-25T11:21:30.987Z,45.07
2019-04-25T11:22:36.046Z,45.06
2019-04-25T11:23:41.438Z,44.98
2019-04-25T11:24:46.755Z,44.81
2019-04-25T11:25:54.159Z,44.67
2019-04-25T11:26:58.825Z,44.50
2019-04-25T11:28:05.844Z,44.30
2019-04-25T11:29:11.017Z,44.17
2019-04-25T11:30:17.460Z,44.02
2019-04-25T11:31:40.579Z,43.82
2019-04-25T11:32:45.774Z,43.63
2019-04-25T11:33:51.192Z,43.52
2019-04-25T11:34:57.277Z,43.37
2019-04-25T11:36:04.091Z,43.28
2019-04-25T11:37:09.342Z,43.19
2019-04-25T11:38:17.493Z,43.27
2019-04-25T11:39:40.278Z,43.36
2019-04-25T11:40:51.491Z,43.54
2019-04-25T11:41:56.553Z,43.71
2019-04-25T11:43:01.577Z,43.82
2019-04-25T11:44:07.070Z,43.93
2019-04-25T11:45:14.299Z,44.02
2019-04-25T11:46:19.695Z,44.12
2019-04-25T11:47:24.833Z,44.25
2019-04-25T11:48:29.837Z,44.28
2019-04-25T11:49:35.140Z,44.33
2019-04-25T11:50:40.649Z,44.44
2019-04-25T11:51:46.084Z,44.65
2019-04-25T11:52:51.341Z,44.78
2019-04-25T11:53:56.255Z,44.86
2019-04-25T11:55:01.348Z,44.92
2019-04-25T11:56:06.423Z,44.90
2019-04-25T11:57:11.543Z,44.87
2019-04-25T11:58:16.819Z,44.75
2019-04-25T11:59:23.419Z,44.57
2019-04-25T12:00:29.310Z,44.41
2019-04-25T12:01:34.404Z,44.21
2019-04-25T12:02:39.401Z,43.98
2019-04-25T12:03:46.621Z,43.85
2019-04-25T12:04:51.337Z,43.56
2019-04-25T12:05:56.303Z,43.34
2019-04-25T12:07:03.835Z,43.29
2019-04-25T12:08:08.932Z,43.29
2019-04-25T12:09:14.155Z,43.24
2019-04-25T12:10:19.686Z,43.12
2019-04-25T12:11:24.975Z,43.10
2019-04-25T12:12:30.092Z,43.14
2019-04-25T12:13:35.165Z,43.13
2019-04-25T12:14:40.427Z,43.20
2019-04-25T12:15:46.133Z,43.19
2019-04-25T12:16:53.221Z,43.13
2019-04-25T12:17:58.752Z,43.16
2019-04-25T12:19:04.820Z,43.06
2019-04-25T12:20:09.978Z,43.02
2019-04-25T12:21:15.670Z,43.03
2019-04-25T12:22:20.745Z,43.11
2019-04-25T12:23:25.764Z,43.20
2019-04-25T12:24:30.687Z,43.18
2019-04-25T12:25:35.736Z,42.97
2019-04-25T12:26:40.707Z,42.77
2019-04-25T12:27:48.585Z,42.62
2019-04-25T12:28:53.925Z,42.53
2019-04-25T12:29:59.512Z,42.42
2019-04-25T12:31:04.585Z,42.40
2019-04-25T12:32:09.947Z,42.37
2019-04-25T12:33:21.144Z,42.36
2019-04-25T12:34:21.615Z,42.26
2019-04-25T12:35:26.697Z,42.00
2019-04-25T12:36:31.829Z,41.80
2019-04-25T12:37:37.100Z,41.64
2019-04-25T12:38:43.887Z,41.51
2019-04-25T12:39:49.154Z,41.15
2019-04-25T12:40:55.322Z,40.95
2019-04-25T12:42:00.297Z,40.65
2019-04-25T12:43:05.401Z,40.38
2019-04-25T12:44:26.350Z,40.15
2019-04-25T12:45:47.320Z,40.03
2019-04-25T12:46:52.843Z,39.43
2019-04-25T12:47:59.858Z,39.32
2019-04-25T12:49:04.840Z,39.36
2019-04-25T12:50:10.297Z,39.51
2019-04-25T12:51:15.331Z,39.61
2019-04-25T12:52:20.405Z,39.60
2019-04-25T12:53:25.355Z,39.31
2019-04-25T12:54:30.461Z,39.11
2019-04-25T12:55:35.385Z,38.83
2019-04-25T12:56:40.574Z,38.61
2019-04-25T12:57:45.631Z,38.47
2019-04-25T12:58:51.529Z,38.37
2019-04-25T12:59:57.512Z,38.30
2019-04-25T13:01:04.292Z,38.18
2019-04-25T13:02:09.424Z,38.08
2019-04-25T13:03:14.464Z,38.10
2019-04-25T13:04:19.406Z,38.03
2019-04-25T13:05:24.532Z,37.84
2019-04-25T13:06:29.498Z,37.60
2019-04-25T13:07:34.404Z,37.53
2019-04-25T13:08:39.746Z,37.44
2019-04-25T13:09:45.718Z,37.40
2019-04-25T13:10:51.147Z,37.28
2019-04-25T13:11:56.387Z,37.15
2019-04-25T13:13:01.415Z,36.73
2019-04-25T13:14:06.814Z,36.54
2019-04-25T13:15:11.970Z,36.40
2019-04-25T13:16:16.955Z,36.26
2019-04-25T13:17:23.944Z,36.18
2019-04-25T13:18:28.821Z,36.19
2019-04-25T13:19:34.230Z,36.13
2019-04-25T13:20:39.422Z,36.08
2019-04-25T13:21:44.443Z,36.01
2019-04-25T13:22:49.429Z,35.92
2019-04-25T13:23:54.389Z,35.84
2019-04-25T13:24:59.586Z,35.84
2019-04-25T13:26:05.377Z,35.91
2019-04-25T13:27:21.430Z,35.87
2019-04-25T13:28:47.826Z,35.74
2019-04-25T13:30:14.079Z,35.75
2019-04-25T13:31:34.949Z,35.72
2019-04-25T13:32:53.807Z,35.71
2019-04-25T13:34:05.919Z,35.78
2019-04-25T13:35:17.558Z,35.88
2019-04-25T13:36:22.897Z,35.99
2019-04-25T13:37:27.873Z,36.07
2019-04-25T13:38:33.119Z,36.16
2019-04-25T13:39:38.596Z,36.24
2019-04-25T13:40:43.772Z,36.29
2019-04-25T13:41:48.803Z,36.32
2019-04-25T13:42:53.869Z,36.42
2019-04-25T13:43:58.968Z,36.40
2019-04-25T13:45:05.149Z,36.49
2019-04-25T13:46:11.126Z,36.56
2019-04-25T13:47:17.529Z,36.63
2019-04-25T13:48:25.541Z,36.45
2019-04-25T13:49:29.405Z,36.31
2019-04-25T13:50:34.600Z,35.96
2019-04-25T13:51:39.737Z,35.76
2019-04-25T13:52:44.820Z,35.77
2019-04-25T13:53:49.972Z,35.91
2019-04-25T13:54:55.178Z,36.04
2019-04-25T13:56:00.354Z,36.07
2019-04-25T13:57:05.535Z,36.05
2019-04-25T13:58:10.833Z,35.99
2019-04-25T13:59:16.059Z,35.92
2019-04-25T14:00:24.754Z,35.93
2019-04-25T14:01:30.199Z,35.96
2019-04-25T14:02:35.307Z,35.86
2019-04-25T14:03:40.414Z,35.76
2019-04-25T14:04:45.663Z,35.63
2019-04-25T14:05:50.747Z,35.58
2019-04-25T14:06:55.927Z,35.59
2019-04-25T14:08:01.178Z,35.51
2019-04-25T14:09:11.122Z,35.46
2019-04-25T14:10:16.341Z,35.41
2019-04-25T14:11:21.512Z,35.44
2019-04-25T14:12:28.099Z,35.49
2019-04-25T14:13:33.491Z,35.57
2019-04-25T14:14:38.803Z,35.57
2019-04-25T14:15:57.828Z,35.53
2019-04-25T14:17:20.169Z,35.46
2019-04-25T14:18:39.021Z,35.42
2019-04-25T14:20:01.771Z,35.37
2019-04-25T14:21:13.316Z,35.35
2019-04-25T14:22:18.483Z,35.31
2019-04-25T14:23:24.790Z,35.06
2019-04-25T14:24:32.313Z,34.84
2019-04-25T14:25:37.792Z,34.72
2019-04-25T14:26:42.916Z,34.72
2019-04-25T14:27:48.003Z,34.78
2019-04-25T14:28:54.157Z,34.78
2019-04-25T14:29:59.487Z,34.76
2019-04-25T14:31:04.734Z,34.80
2019-04-25T14:32:09.845Z,34.86